Monkton Ridge, Vermont
Current Conditions -  °F | °C
As of 4:54 AM on Saturday 20 Dec 2014 (Local Time) from KBTV Reporting Station
Clear Clear  
Wind Chill: 11°   Ceiling: Unl
Heat Index: 11°   Visibility: 10mi
Dew Point:   Wind: 3mph
Humidity: 84%   Direction: 110°ESE
Pressure: 30.27"   Gusts: NA
Location:  44.2438°N, 73.1915°W
Report Text: KBTV 200954Z 11003KT 10SM CLR M12/M14 A3027 RMK AO2 SLP257 T11171139
Loading
Personal Weather Stations






























Interactive Weather Map New forecast layout! Learn more

10-Day Weather Forecast

Advertisements
Track Severe Weather on mobile